createdAt,value
2023-05-07T00:00:06.014Z,0.00
2023-05-07T00:01:05.966Z,0.00
2023-05-07T00:02:05.955Z,0.00
2023-05-07T00:03:05.995Z,0.00
2023-05-07T00:04:06.243Z,0.00
2023-05-07T00:05:05.990Z,0.00
2023-05-07T00:06:05.869Z,0.00
2023-05-07T00:07:05.866Z,0.00
2023-05-07T00:08:05.831Z,0.00
2023-05-07T00:09:05.793Z,0.00
2023-05-07T00:10:05.780Z,0.00
2023-05-07T00:11:05.752Z,0.00
2023-05-07T00:12:05.733Z,0.00
2023-05-07T00:13:05.769Z,0.00
2023-05-07T00:14:05.697Z,0.00
2023-05-07T00:15:05.667Z,0.00
2023-05-07T00:16:05.763Z,0.00
2023-05-07T00:17:05.621Z,0.00
2023-05-07T00:18:05.646Z,0.00
2023-05-07T00:19:05.588Z,0.00
2023-05-07T00:20:05.561Z,0.00
2023-05-07T00:21:05.545Z,0.00
2023-05-07T00:22:05.512Z,0.00
2023-05-07T00:23:05.498Z,0.00
2023-05-07T00:24:05.477Z,0.00
2023-05-07T00:25:05.462Z,0.00
2023-05-07T00:26:05.435Z,0.00
2023-05-07T00:27:05.408Z,0.00
2023-05-07T00:28:05.396Z,0.00
2023-05-07T00:29:05.364Z,0.00
2023-05-07T00:30:05.348Z,0.00
2023-05-07T00:31:05.325Z,0.00
2023-05-07T00:32:05.541Z,0.00
2023-05-07T00:33:05.342Z,0.00
2023-05-07T00:34:05.266Z,0.00
2023-05-07T00:35:05.234Z,0.00
2023-05-07T00:36:05.220Z,0.00
2023-05-07T00:37:06.711Z,0.00
2023-05-07T00:38:05.189Z,0.00
2023-05-07T00:39:05.148Z,0.00
2023-05-07T00:40:05.140Z,0.00
2023-05-07T00:41:05.106Z,0.00
2023-05-07T00:42:05.093Z,0.00
2023-05-07T00:43:05.064Z,0.00
2023-05-07T00:44:05.070Z,0.00
2023-05-07T00:45:05.019Z,0.00
2023-05-07T00:46:05.115Z,0.00
2023-05-07T00:47:04.978Z,0.00
2023-05-07T00:48:05.164Z,0.00
2023-05-07T00:49:04.935Z,0.00
2023-05-07T00:50:04.927Z,0.00
2023-05-07T00:51:04.892Z,0.00
2023-05-07T00:52:04.869Z,0.00
2023-05-07T00:53:04.851Z,0.00
2023-05-07T00:54:04.825Z,0.00
2023-05-07T00:55:04.803Z,0.00
2023-05-07T00:56:04.990Z,0.00
2023-05-07T00:57:04.769Z,0.00
2023-05-07T00:58:04.742Z,0.00
2023-05-07T00:59:04.787Z,0.00
2023-05-07T01:00:04.699Z,0.00
2023-05-07T01:01:04.725Z,0.00
2023-05-07T01:02:04.661Z,0.00
2023-05-07T01:03:04.673Z,0.00
2023-05-07T01:04:04.726Z,0.00
2023-05-07T01:05:04.591Z,0.00
2023-05-07T01:06:04.564Z,0.00
2023-05-07T01:07:04.544Z,0.00
2023-05-07T01:08:04.555Z,0.00
2023-05-07T01:09:04.504Z,0.00
2023-05-07T01:10:04.481Z,0.00
2023-05-07T01:11:04.457Z,0.00
2023-05-07T01:12:04.442Z,0.00
2023-05-07T01:13:04.465Z,0.00
2023-05-07T01:14:04.393Z,0.00
2023-05-07T01:15:04.372Z,0.00
2023-05-07T01:16:04.358Z,0.00
2023-05-07T01:17:04.366Z,0.00
2023-05-07T01:18:04.342Z,0.00
2023-05-07T01:19:04.282Z,0.00
2023-05-07T01:20:04.357Z,0.00
2023-05-07T01:21:04.255Z,0.00
2023-05-07T01:22:04.231Z,0.00
2023-05-07T01:23:04.199Z,0.00
2023-05-07T01:24:04.180Z,0.00
2023-05-07T01:25:04.155Z,0.00
2023-05-07T01:26:04.148Z,0.00
2023-05-07T01:27:04.111Z,0.00
2023-05-07T01:28:04.110Z,0.00
2023-05-07T01:29:04.078Z,0.00
2023-05-07T01:30:04.058Z,0.00
2023-05-07T01:31:04.168Z,0.00
2023-05-07T01:32:04.033Z,0.00
2023-05-07T01:33:04.042Z,0.00
2023-05-07T01:34:03.969Z,0.00
2023-05-07T01:35:03.942Z,0.00
2023-05-07T01:36:03.936Z,0.00
2023-05-07T01:37:03.899Z,0.00
2023-05-07T01:38:03.880Z,0.00
2023-05-07T01:39:03.858Z,0.00
2023-05-07T01:40:03.831Z,0.00
2023-05-07T01:41:03.819Z,0.00
2023-05-07T01:42:03.795Z,0.00
2023-05-07T01:43:03.767Z,0.00
2023-05-07T01:44:03.744Z,0.00
2023-05-07T01:45:03.721Z,0.00
2023-05-07T01:46:03.746Z,0.00
2023-05-07T01:47:03.679Z,0.00
2023-05-07T01:48:03.718Z,0.00
2023-05-07T01:49:03.633Z,0.00
2023-05-07T01:50:03.631Z,0.00
2023-05-07T01:51:03.629Z,0.00
2023-05-07T01:52:03.724Z,0.00
2023-05-07T01:53:03.591Z,0.00
2023-05-07T01:54:03.530Z,0.00
2023-05-07T01:55:03.508Z,0.00
2023-05-07T01:56:03.480Z,0.00
2023-05-07T01:57:03.467Z,0.00
2023-05-07T01:58:03.435Z,0.00
2023-05-07T01:59:03.417Z,0.00
2023-05-07T02:00:03.399Z,0.00
2023-05-07T02:01:03.371Z,0.00
2023-05-07T02:02:03.372Z,0.00
2023-05-07T02:03:03.391Z,0.00
2023-05-07T02:04:03.448Z,0.00
2023-05-07T02:05:03.317Z,0.00
2023-05-07T02:06:03.267Z,0.00
2023-05-07T02:07:03.237Z,0.00
2023-05-07T02:08:03.240Z,0.00
2023-05-07T02:09:03.206Z,0.00
2023-05-07T02:10:03.191Z,0.00
2023-05-07T02:11:03.185Z,0.00
2023-05-07T02:12:03.138Z,0.00
2023-05-07T02:13:03.216Z,0.00
2023-05-07T02:14:03.100Z,0.00
2023-05-07T02:15:03.063Z,0.00
2023-05-07T02:16:03.064Z,0.00
2023-05-07T02:17:03.023Z,0.00
2023-05-07T02:18:03.058Z,0.00
2023-05-07T02:19:03.014Z,0.00
2023-05-07T02:20:02.957Z,0.00
2023-05-07T02:21:02.947Z,0.00
2023-05-07T02:22:02.933Z,0.00
2023-05-07T02:23:02.905Z,0.00
2023-05-07T02:24:02.890Z,0.00
2023-05-07T02:25:02.851Z,0.00
2023-05-07T02:26:02.833Z,0.00
2023-05-07T02:27:02.817Z,0.00
2023-05-07T02:28:02.785Z,0.00
2023-05-07T02:29:02.762Z,0.00
2023-05-07T02:30:02.740Z,0.00
2023-05-07T02:31:02.714Z,0.00
2023-05-07T02:32:02.741Z,0.00
2023-05-07T02:33:02.721Z,0.00
2023-05-07T02:34:02.657Z,0.00
2023-05-07T02:35:02.645Z,0.00
2023-05-07T02:36:02.617Z,0.00
2023-05-07T02:37:02.596Z,0.00
2023-05-07T02:38:02.569Z,0.00
2023-05-07T02:39:02.544Z,0.00
2023-05-07T02:40:02.677Z,0.00
2023-05-07T02:41:02.506Z,0.00
2023-05-07T02:42:02.483Z,0.00
2023-05-07T02:43:02.459Z,0.00
2023-05-07T02:44:02.448Z,0.00
2023-05-07T02:45:02.412Z,0.00
2023-05-07T02:46:02.455Z,0.00
2023-05-07T02:47:02.376Z,0.00
2023-05-07T02:48:02.501Z,0.00
2023-05-07T02:49:02.350Z,0.00
2023-05-07T02:50:02.330Z,0.00
2023-05-07T02:51:02.288Z,0.00
2023-05-07T02:52:02.254Z,0.00
2023-05-07T02:53:02.240Z,0.00
2023-05-07T02:54:02.237Z,0.00
2023-05-07T02:55:02.191Z,0.00
2023-05-07T02:56:02.432Z,0.00
2023-05-07T02:57:02.152Z,0.00
2023-05-07T02:58:02.129Z,0.00
2023-05-07T02:59:02.101Z,0.00
2023-05-07T03:00:02.084Z,0.00
2023-05-07T03:01:02.076Z,0.00
2023-05-07T03:02:02.036Z,0.00
2023-05-07T03:03:02.038Z,0.00
2023-05-07T03:04:02.000Z,0.00
2023-05-07T03:05:01.971Z,0.00
2023-05-07T03:06:01.952Z,0.00
2023-05-07T03:07:01.936Z,0.00
2023-05-07T03:08:01.903Z,0.00
2023-05-07T03:09:01.885Z,0.00
2023-05-07T03:10:01.863Z,0.00
2023-05-07T03:11:01.869Z,0.00
2023-05-07T03:12:01.883Z,0.00
2023-05-07T03:13:01.948Z,0.00
2023-05-07T03:14:01.783Z,0.00
2023-05-07T03:15:01.755Z,0.00
2023-05-07T03:16:01.775Z,0.00
2023-05-07T03:17:01.708Z,0.00
2023-05-07T03:18:01.794Z,0.00
2023-05-07T03:19:01.712Z,0.00
2023-05-07T03:20:01.650Z,0.00
2023-05-07T03:21:01.685Z,0.00
2023-05-07T03:22:01.606Z,0.00
2023-05-07T03:23:01.573Z,0.00
2023-05-07T03:24:01.549Z,0.00
2023-05-07T03:25:01.551Z,0.00
2023-05-07T03:26:01.505Z,0.00
2023-05-07T03:27:01.484Z,0.00
2023-05-07T03:28:01.553Z,0.00
2023-05-07T03:29:01.435Z,0.00
2023-05-07T03:30:01.412Z,0.00
2023-05-07T03:31:01.435Z,0.00
2023-05-07T03:32:01.392Z,0.00
2023-05-07T03:33:01.439Z,4.00
2023-05-07T03:34:01.342Z,4.00
2023-05-07T03:35:01.338Z,0.00
2023-05-07T03:36:01.305Z,0.00
2023-05-07T03:37:01.262Z,0.00
2023-05-07T03:38:01.248Z,0.00
2023-05-07T03:39:01.225Z,4.00
2023-05-07T03:40:01.188Z,4.00
2023-05-07T03:41:01.172Z,0.00
2023-05-07T03:42:01.148Z,4.00
2023-05-07T03:43:01.128Z,4.00
2023-05-07T03:44:01.197Z,4.00
2023-05-07T03:45:01.102Z,4.00
2023-05-07T03:46:01.092Z,4.00
2023-05-07T03:47:01.043Z,4.00
2023-05-07T03:48:01.065Z,4.00
2023-05-07T03:49:00.991Z,4.00
2023-05-07T03:50:00.971Z,8.00
2023-05-07T03:51:00.946Z,8.00
2023-05-07T03:52:00.921Z,4.00
2023-05-07T03:53:00.906Z,8.00
2023-05-07T03:54:00.882Z,4.00
2023-05-07T03:55:00.865Z,8.00
2023-05-07T03:56:00.838Z,8.00
2023-05-07T03:57:00.826Z,12.00
2023-05-07T03:58:00.790Z,12.00
2023-05-07T03:59:00.773Z,12.00
2023-05-07T04:00:00.798Z,12.00
2023-05-07T04:01:00.728Z,12.00
2023-05-07T04:02:02.318Z,12.00
2023-05-07T04:03:00.724Z,12.00
2023-05-07T04:04:00.741Z,16.00
2023-05-07T04:05:00.657Z,16.00
2023-05-07T04:06:00.622Z,16.00
2023-05-07T04:07:00.604Z,16.00
2023-05-07T04:08:00.587Z,20.00
2023-05-07T04:09:00.556Z,16.00
2023-05-07T04:10:00.546Z,16.00
2023-05-07T04:11:01.440Z,20.00
2023-05-07T04:12:00.498Z,20.00
2023-05-07T04:13:00.502Z,20.00
2023-05-07T04:14:00.451Z,24.00
2023-05-07T04:15:00.420Z,24.00
2023-05-07T04:16:00.638Z,24.00
2023-05-07T04:17:00.451Z,24.00
2023-05-07T04:18:00.377Z,24.00
2023-05-07T04:19:00.338Z,28.00
2023-05-07T04:20:00.307Z,28.00
2023-05-07T04:21:00.289Z,32.00
2023-05-07T04:22:00.264Z,36.00
2023-05-07T04:23:00.239Z,36.00
2023-05-07T04:24:00.223Z,40.00
2023-05-07T04:25:00.193Z,44.00
2023-05-07T04:26:00.174Z,52.00
2023-05-07T04:27:00.154Z,56.00
2023-05-07T04:28:00.126Z,56.00
2023-05-07T04:29:00.161Z,64.00
2023-05-07T04:30:00.130Z,64.00
2023-05-07T04:31:00.102Z,72.00
2023-05-07T04:32:00.225Z,80.00
2023-05-07T04:33:00.098Z,88.00
2023-05-07T04:34:00.006Z,92.00
2023-05-07T04:34:59.977Z,96.00
2023-05-07T04:35:59.953Z,100.00
2023-05-07T04:36:59.930Z,104.00
2023-05-07T04:37:59.914Z,108.00
2023-05-07T04:38:59.896Z,108.00
2023-05-07T04:39:59.866Z,112.00
2023-05-07T04:40:59.842Z,112.00
2023-05-07T04:41:59.817Z,112.00
2023-05-07T04:42:59.797Z,116.00
2023-05-07T04:43:59.770Z,112.00
2023-05-07T04:44:59.751Z,108.00
2023-05-07T04:45:59.812Z,108.00
2023-05-07T04:46:59.715Z,112.00
2023-05-07T04:47:59.790Z,112.00
2023-05-07T04:48:59.661Z,116.00
2023-05-07T04:49:59.633Z,116.00
2023-05-07T04:50:59.615Z,120.00
2023-05-07T04:51:59.593Z,128.00
2023-05-07T04:52:59.577Z,132.00
2023-05-07T04:53:59.548Z,136.00
2023-05-07T04:54:59.528Z,144.00
2023-05-07T04:55:59.510Z,148.00
2023-05-07T04:56:59.485Z,160.00
2023-05-07T04:57:59.468Z,168.00
2023-05-07T04:58:59.440Z,180.00
2023-05-07T04:59:59.412Z,184.00
2023-05-07T05:00:59.444Z,188.00
2023-05-07T05:01:59.388Z,192.00
2023-05-07T05:02:59.380Z,192.00
2023-05-07T05:03:59.389Z,192.00
2023-05-07T05:04:59.302Z,196.00
2023-05-07T05:05:59.282Z,196.00
2023-05-07T05:06:59.266Z,200.00
2023-05-07T05:07:59.238Z,200.00
2023-05-07T05:08:59.230Z,204.00
2023-05-07T05:09:59.192Z,204.00
2023-05-07T05:10:59.175Z,208.00
2023-05-07T05:11:59.152Z,212.00
2023-05-07T05:12:59.243Z,216.00
2023-05-07T05:13:59.114Z,220.00
2023-05-07T05:14:59.101Z,228.00
2023-05-07T05:15:59.081Z,232.00
2023-05-07T05:16:59.046Z,236.00
2023-05-07T05:17:59.107Z,236.00
2023-05-07T05:18:58.995Z,240.00
2023-05-07T05:19:59.066Z,240.00
2023-05-07T05:20:58.958Z,240.00
2023-05-07T05:21:58.931Z,248.00
2023-05-07T05:22:58.909Z,248.00
2023-05-07T05:23:58.892Z,248.00
2023-05-07T05:24:58.871Z,256.00
2023-05-07T05:25:58.873Z,256.00
2023-05-07T05:26:58.818Z,256.00
2023-05-07T05:27:58.800Z,256.00
2023-05-07T05:28:58.775Z,256.00
2023-05-07T05:29:58.757Z,260.00
2023-05-07T05:30:58.730Z,264.00
2023-05-07T05:31:58.772Z,264.00
2023-05-07T05:32:58.725Z,272.00
2023-05-07T05:33:58.670Z,276.00
2023-05-07T05:34:58.645Z,280.00
2023-05-07T05:35:58.641Z,284.00
2023-05-07T05:36:58.602Z,288.00
2023-05-07T05:37:58.573Z,292.00
2023-05-07T05:38:58.555Z,296.00
2023-05-07T05:39:58.545Z,300.00
2023-05-07T05:40:58.511Z,300.00
2023-05-07T05:41:58.483Z,296.00
2023-05-07T05:42:58.470Z,296.00
2023-05-07T05:43:58.437Z,296.00
2023-05-07T05:44:58.420Z,296.00
2023-05-07T05:45:58.411Z,296.00
2023-05-07T05:46:58.423Z,296.00
2023-05-07T05:47:58.382Z,300.00
2023-05-07T05:48:58.334Z,304.00
2023-05-07T05:49:58.306Z,304.00
2023-05-07T05:50:58.290Z,308.00
2023-05-07T05:51:58.284Z,308.00
2023-05-07T05:52:58.242Z,308.00
2023-05-07T05:53:58.222Z,312.00
2023-05-07T05:54:58.198Z,316.00
2023-05-07T05:55:58.184Z,316.00
2023-05-07T05:56:58.164Z,320.00
2023-05-07T05:57:58.125Z,320.00
2023-05-07T05:58:58.127Z,324.00
2023-05-07T05:59:58.085Z,328.00
2023-05-07T06:00:58.077Z,332.00
2023-05-07T06:01:58.064Z,340.00
2023-05-07T06:02:58.027Z,344.00
2023-05-07T06:03:57.995Z,344.00
2023-05-07T06:04:58.065Z,348.00
2023-05-07T06:05:57.969Z,344.00
2023-05-07T06:06:57.930Z,348.00
2023-05-07T06:07:58.045Z,348.00
2023-05-07T06:08:57.882Z,348.00
2023-05-07T06:09:57.862Z,348.00
2023-05-07T06:10:57.842Z,352.00
2023-05-07T06:12:00.347Z,356.00
2023-05-07T06:12:57.851Z,360.00
2023-05-07T06:13:57.773Z,368.00
2023-05-07T06:14:57.752Z,376.00
2023-05-07T06:15:57.729Z,372.00
2023-05-07T06:16:57.789Z,380.00
2023-05-07T06:17:57.720Z,380.00
2023-05-07T06:18:57.673Z,388.00
2023-05-07T06:19:57.645Z,396.00
2023-05-07T06:20:57.617Z,404.00
2023-05-07T06:21:57.600Z,416.00
2023-05-07T06:22:57.579Z,420.00
2023-05-07T06:23:57.649Z,420.00
2023-05-07T06:24:57.529Z,400.00
2023-05-07T06:25:57.506Z,380.00
2023-05-07T06:26:57.495Z,376.00
2023-05-07T06:27:57.477Z,384.00
2023-05-07T06:28:57.448Z,400.00
2023-05-07T06:29:57.433Z,420.00
2023-05-07T06:30:57.399Z,432.00
2023-05-07T06:31:57.418Z,444.00
2023-05-07T06:32:57.379Z,460.00
2023-05-07T06:33:57.326Z,480.00
2023-05-07T06:34:57.310Z,508.00
2023-05-07T06:35:57.288Z,524.00
2023-05-07T06:36:57.273Z,540.00
2023-05-07T06:37:57.238Z,548.00
2023-05-07T06:38:57.227Z,544.00
2023-05-07T06:39:59.296Z,536.00
2023-05-07T06:40:57.197Z,528.00
2023-05-07T06:41:57.158Z,520.00
2023-05-07T06:42:57.146Z,516.00
2023-05-07T06:43:57.111Z,520.00
2023-05-07T06:44:57.100Z,528.00
2023-05-07T06:45:57.121Z,536.00
2023-05-07T06:46:57.048Z,540.00
2023-05-07T06:47:57.093Z,532.00
2023-05-07T06:48:57.002Z,532.00
2023-05-07T06:49:56.983Z,536.00
2023-05-07T06:50:56.972Z,544.00
2023-05-07T06:51:56.931Z,548.00
2023-05-07T06:52:56.923Z,552.00
2023-05-07T06:53:56.891Z,552.00
2023-05-07T06:54:56.871Z,548.00
2023-05-07T06:55:56.949Z,532.00
2023-05-07T06:56:56.831Z,520.00
2023-05-07T06:57:56.808Z,504.00
2023-05-07T06:58:56.782Z,500.00
2023-05-07T06:59:56.754Z,504.00
2023-05-07T07:00:56.736Z,512.00
2023-05-07T07:01:56.742Z,524.00
2023-05-07T07:02:56.769Z,536.00
2023-05-07T07:03:56.662Z,540.00
2023-05-07T07:04:56.700Z,540.00
2023-05-07T07:05:56.626Z,540.00
2023-05-07T07:06:56.602Z,540.00
2023-05-07T07:07:56.585Z,548.00
2023-05-07T07:08:56.556Z,548.00
2023-05-07T07:09:56.538Z,556.00
2023-05-07T07:10:56.534Z,552.00
2023-05-07T07:11:56.912Z,556.00
2023-05-07T07:12:56.543Z,560.00
2023-05-07T07:13:56.449Z,568.00
2023-05-07T07:14:56.426Z,572.00
2023-05-07T07:15:56.421Z,580.00
2023-05-07T07:16:56.408Z,596.00
2023-05-07T07:17:56.398Z,608.00
2023-05-07T07:18:56.341Z,624.00
2023-05-07T07:19:56.334Z,640.00
2023-05-07T07:20:56.293Z,656.00
2023-05-07T07:21:56.280Z,660.00
2023-05-07T07:22:56.251Z,668.00
2023-05-07T07:23:56.228Z,672.00
2023-05-07T07:24:56.203Z,676.00
2023-05-07T07:25:56.187Z,680.00
2023-05-07T07:26:56.167Z,688.00
2023-05-07T07:27:56.164Z,700.00
2023-05-07T07:28:56.119Z,720.00
2023-05-07T07:29:56.106Z,716.00
2023-05-07T07:30:56.085Z,752.00
2023-05-07T07:31:56.226Z,736.00
2023-05-07T07:32:56.107Z,748.00
2023-05-07T07:33:56.010Z,748.00
2023-05-07T07:34:55.984Z,808.00
2023-05-07T07:35:55.966Z,812.00
2023-05-07T07:36:55.949Z,820.00
2023-05-07T07:37:55.919Z,768.00
2023-05-07T07:38:55.907Z,848.00
2023-05-07T07:39:55.883Z,916.00
2023-05-07T07:40:55.855Z,888.00
2023-05-07T07:41:55.855Z,952.00
2023-05-07T07:42:55.824Z,948.00
2023-05-07T07:43:55.948Z,972.00
2023-05-07T07:44:55.768Z,828.00
2023-05-07T07:45:55.752Z,808.00
2023-05-07T07:46:55.775Z,828.00
2023-05-07T07:47:55.763Z,1008.00
2023-05-07T07:48:55.682Z,992.00
2023-05-07T07:49:55.674Z,1148.00
2023-05-07T07:50:55.636Z,1260.00
2023-05-07T07:51:55.621Z,1272.00
2023-05-07T07:52:55.604Z,1256.00
2023-05-07T07:53:55.578Z,1232.00
2023-05-07T07:54:55.550Z,1272.00
2023-05-07T07:55:59.490Z,1276.00
2023-05-07T07:56:55.504Z,1232.00
2023-05-07T07:57:55.489Z,1236.00
2023-05-07T07:58:55.462Z,1184.00
2023-05-07T07:59:55.461Z,1144.00
2023-05-07T08:00:55.424Z,1052.00
2023-05-07T08:01:55.741Z,1124.00
2023-05-07T08:02:55.575Z,1124.00
2023-05-07T08:03:55.465Z,1116.00
2023-05-07T08:04:55.332Z,1092.00
2023-05-07T08:05:55.319Z,1040.00
2023-05-07T08:06:55.307Z,1084.00
2023-05-07T08:07:55.279Z,1160.00
2023-05-07T08:08:55.248Z,1276.00
2023-05-07T08:09:55.222Z,1300.00
2023-05-07T08:10:55.210Z,1336.00
2023-05-07T08:11:55.194Z,1360.00
2023-05-07T08:12:55.221Z,1480.00
2023-05-07T08:13:55.150Z,1300.00
2023-05-07T08:14:55.129Z,1384.00
2023-05-07T08:15:55.137Z,1404.00
2023-05-07T08:17:55.092Z,1416.00
2023-05-07T08:18:55.047Z,1460.00
2023-05-07T08:19:55.017Z,1416.00
2023-05-07T08:20:54.997Z,1468.00
2023-05-07T08:21:54.974Z,1448.00
2023-05-07T08:22:54.967Z,1276.00
2023-05-07T08:23:54.935Z,1260.00
2023-05-07T08:24:54.925Z,1160.00
2023-05-07T08:25:54.887Z,996.00
2023-05-07T08:26:54.870Z,952.00
2023-05-07T08:27:54.850Z,944.00
2023-05-07T08:28:54.829Z,868.00
2023-05-07T08:29:54.809Z,876.00
2023-05-07T08:30:54.819Z,888.00
2023-05-07T08:31:54.851Z,864.00
2023-05-07T08:32:54.802Z,856.00
2023-05-07T08:33:54.721Z,884.00
2023-05-07T08:34:54.706Z,896.00
2023-05-07T08:35:54.729Z,872.00
2023-05-07T08:36:54.662Z,900.00
2023-05-07T08:37:54.635Z,940.00
2023-05-07T08:38:54.625Z,972.00
2023-05-07T08:39:54.590Z,956.00
2023-05-07T08:40:54.582Z,976.00
2023-05-07T08:41:54.554Z,996.00
2023-05-07T08:42:54.541Z,936.00
2023-05-07T08:43:54.509Z,976.00
2023-05-07T08:44:54.488Z,1008.00
2023-05-07T08:45:54.498Z,1044.00
2023-05-07T08:46:54.579Z,1064.00
2023-05-07T08:47:54.518Z,1024.00
2023-05-07T08:48:54.410Z,1000.00
2023-05-07T08:49:54.380Z,1024.00
2023-05-07T08:50:54.364Z,1112.00
2023-05-07T08:51:54.343Z,1136.00
2023-05-07T08:52:54.321Z,1220.00
2023-05-07T08:53:54.290Z,1252.00
2023-05-07T08:54:54.274Z,1252.00
2023-05-07T08:55:54.255Z,1208.00
2023-05-07T08:56:54.232Z,1220.00
2023-05-07T08:57:54.209Z,1420.00
2023-05-07T08:58:54.186Z,1320.00
2023-05-07T08:59:54.162Z,1488.00
2023-05-07T09:00:54.150Z,1420.00
2023-05-07T09:01:54.205Z,1268.00
2023-05-07T09:02:54.134Z,1364.00
2023-05-07T09:03:54.378Z,1460.00
2023-05-07T09:04:54.080Z,1396.00
2023-05-07T09:05:54.044Z,1436.00
2023-05-07T09:06:54.021Z,1408.00
2023-05-07T09:07:54.589Z,1584.00
2023-05-07T09:08:53.974Z,1672.00
2023-05-07T09:09:53.963Z,1820.00
2023-05-07T09:10:53.931Z,1812.00
2023-05-07T09:11:53.916Z,1612.00
2023-05-07T09:12:53.930Z,1516.00
2023-05-07T09:13:53.872Z,1560.00
2023-05-07T09:14:53.864Z,1620.00
2023-05-07T09:15:53.867Z,1696.00
2023-05-07T09:16:53.809Z,1476.00
2023-05-07T09:17:53.811Z,1384.00
2023-05-07T09:18:53.774Z,1400.00
2023-05-07T09:19:53.769Z,1476.00
2023-05-07T09:20:53.725Z,1380.00
2023-05-07T09:21:53.703Z,1388.00
2023-05-07T09:22:53.684Z,1316.00
2023-05-07T09:23:53.661Z,1264.00
2023-05-07T09:24:53.640Z,1256.00
2023-05-07T09:25:53.621Z,1356.00
2023-05-07T09:26:53.606Z,1484.00
2023-05-07T09:27:53.581Z,1464.00
2023-05-07T09:28:53.561Z,1356.00
2023-05-07T09:29:53.538Z,1336.00
2023-05-07T09:30:53.525Z,1408.00
2023-05-07T09:31:53.503Z,1464.00
2023-05-07T09:32:53.521Z,1356.00
2023-05-07T09:33:53.454Z,1572.00
2023-05-07T09:34:53.448Z,1648.00
2023-05-07T09:35:53.505Z,1556.00
2023-05-07T09:36:53.398Z,1644.00
2023-05-07T09:37:53.370Z,1612.00
2023-05-07T09:38:53.358Z,1644.00
2023-05-07T09:39:53.346Z,1700.00
2023-05-07T09:40:53.320Z,1388.00
2023-05-07T09:41:53.291Z,1296.00
2023-05-07T09:42:53.269Z,1328.00
2023-05-07T09:43:53.245Z,1296.00
2023-05-07T09:44:53.225Z,1132.00
2023-05-07T09:45:53.242Z,1180.00
2023-05-07T09:46:53.193Z,1280.00
2023-05-07T09:47:53.214Z,1388.00
2023-05-07T09:48:53.145Z,1356.00
2023-05-07T09:49:53.115Z,1256.00
2023-05-07T09:50:53.112Z,1120.00
2023-05-07T09:51:53.112Z,1184.00
2023-05-07T09:52:53.065Z,1332.00
2023-05-07T09:53:53.040Z,1424.00
2023-05-07T09:54:53.029Z,1392.00
2023-05-07T09:55:53.031Z,1300.00
2023-05-07T09:56:52.995Z,1244.00
2023-05-07T09:57:52.963Z,1368.00
2023-05-07T09:58:52.975Z,1196.00
2023-05-07T09:59:52.919Z,1424.00
2023-05-07T10:00:52.911Z,1256.00
2023-05-07T10:01:52.875Z,1300.00
2023-05-07T10:02:53.059Z,1384.00
2023-05-07T10:03:52.924Z,1732.00
2023-05-07T10:04:52.815Z,1644.00
2023-05-07T10:05:52.797Z,1484.00
2023-05-07T10:06:52.776Z,1396.00
2023-05-07T10:07:52.841Z,1632.00
2023-05-07T10:08:52.733Z,1716.00
2023-05-07T10:09:52.717Z,1720.00
2023-05-07T10:10:52.689Z,1668.00
2023-05-07T10:11:52.669Z,1552.00
2023-05-07T10:12:52.759Z,1536.00
2023-05-07T10:13:52.633Z,1484.00
2023-05-07T10:14:52.618Z,1508.00
2023-05-07T10:15:52.583Z,1472.00
2023-05-07T10:16:52.565Z,1484.00
2023-05-07T10:17:52.595Z,1612.00
2023-05-07T10:18:52.523Z,1756.00
2023-05-07T10:19:52.500Z,1780.00
2023-05-07T10:20:52.515Z,1764.00
2023-05-07T10:21:52.486Z,1836.00
2023-05-07T10:22:52.444Z,1880.00
2023-05-07T10:23:52.449Z,1884.00
2023-05-07T10:24:52.409Z,1892.00
2023-05-07T10:25:57.276Z,1936.00
2023-05-07T10:26:52.375Z,1988.00
2023-05-07T10:27:52.340Z,2008.00
2023-05-07T10:28:52.320Z,1904.00
2023-05-07T10:29:52.312Z,1808.00
2023-05-07T10:30:52.315Z,1940.00
2023-05-07T10:31:52.262Z,1948.00
2023-05-07T10:32:52.290Z,2000.00
2023-05-07T10:33:52.223Z,2000.00
2023-05-07T10:34:52.210Z,2064.00
2023-05-07T10:35:52.177Z,1732.00
2023-05-07T10:36:52.171Z,1608.00
2023-05-07T10:37:52.141Z,1568.00
2023-05-07T10:38:52.133Z,1564.00
2023-05-07T10:39:52.123Z,1720.00
2023-05-07T10:40:52.091Z,1852.00
2023-05-07T10:41:52.056Z,1872.00
2023-05-07T10:42:52.046Z,1996.00
2023-05-07T10:43:52.023Z,1972.00
2023-05-07T10:44:52.030Z,1932.00
2023-05-07T10:45:51.991Z,1948.00
2023-05-07T10:46:51.969Z,1916.00
2023-05-07T10:47:51.971Z,1840.00
2023-05-07T10:48:51.925Z,1824.00
2023-05-07T10:49:51.905Z,1864.00
2023-05-07T10:50:51.939Z,1908.00
2023-05-07T10:51:51.872Z,1888.00
2023-05-07T10:52:51.848Z,1880.00
2023-05-07T10:53:51.826Z,1852.00
2023-05-07T10:54:51.807Z,1876.00
2023-05-07T10:55:51.889Z,1872.00
2023-05-07T10:56:51.773Z,1876.00
2023-05-07T10:57:51.748Z,1908.00
2023-05-07T10:58:51.731Z,1844.00
2023-05-07T10:59:51.719Z,1812.00
2023-05-07T11:00:51.684Z,1740.00
2023-05-07T11:01:51.759Z,1772.00
2023-05-07T11:02:51.687Z,1764.00
2023-05-07T11:03:51.621Z,1760.00
2023-05-07T11:04:51.643Z,1724.00
2023-05-07T11:05:51.584Z,1704.00
2023-05-07T11:06:51.566Z,1720.00
2023-05-07T11:07:51.550Z,1748.00
2023-05-07T11:08:51.527Z,1724.00
2023-05-07T11:09:51.506Z,1656.00
2023-05-07T11:10:51.489Z,1644.00
2023-05-07T11:11:51.502Z,1644.00
2023-05-07T11:12:51.466Z,1660.00
2023-05-07T11:13:51.492Z,1660.00
2023-05-07T11:14:51.416Z,1728.00
2023-05-07T11:15:51.419Z,1832.00
2023-05-07T11:16:51.410Z,1760.00
2023-05-07T11:17:51.364Z,1804.00
2023-05-07T11:18:51.336Z,1748.00
2023-05-07T11:19:51.333Z,1892.00
2023-05-07T11:20:51.296Z,1828.00
2023-05-07T11:21:51.269Z,1924.00
2023-05-07T11:22:51.253Z,1920.00
2023-05-07T11:23:51.232Z,1972.00
2023-05-07T11:24:51.219Z,1924.00
2023-05-07T11:25:51.188Z,1932.00
2023-05-07T11:26:51.190Z,1944.00
2023-05-07T11:27:51.167Z,1952.00
2023-05-07T11:28:51.129Z,2008.00
2023-05-07T11:29:51.104Z,1968.00
2023-05-07T11:30:51.093Z,1952.00
2023-05-07T11:31:51.222Z,1944.00
2023-05-07T11:32:51.085Z,1944.00
2023-05-07T11:33:51.032Z,1960.00
2023-05-07T11:34:51.013Z,1932.00
2023-05-07T11:35:50.994Z,1904.00
2023-05-07T11:36:50.978Z,1816.00
2023-05-07T11:37:50.952Z,1800.00
2023-05-07T11:38:50.934Z,1744.00
2023-05-07T11:39:50.917Z,1880.00
2023-05-07T11:40:50.899Z,2004.00
2023-05-07T11:41:52.880Z,2124.00
2023-05-07T11:42:51.946Z,2088.00
2023-05-07T11:43:50.950Z,2052.00
2023-05-07T11:44:50.818Z,2064.00
2023-05-07T11:45:50.816Z,2012.00
2023-05-07T11:46:50.794Z,2112.00
2023-05-07T11:47:50.792Z,2132.00
2023-05-07T11:48:50.743Z,2148.00
2023-05-07T11:49:50.750Z,2180.00
2023-05-07T11:50:50.697Z,2128.00
2023-05-07T11:51:50.687Z,2224.00
2023-05-07T11:52:50.659Z,2168.00
2023-05-07T11:53:50.642Z,2260.00
2023-05-07T11:54:50.625Z,2024.00
2023-05-07T11:55:50.601Z,1908.00
2023-05-07T11:56:50.592Z,1784.00
2023-05-07T11:57:50.596Z,1840.00
2023-05-07T11:58:50.559Z,1800.00
2023-05-07T11:59:50.560Z,1896.00
2023-05-07T12:00:50.508Z,2016.00
2023-05-07T12:01:50.553Z,2160.00
2023-05-07T12:02:50.616Z,2180.00
2023-05-07T12:03:50.560Z,2256.00
2023-05-07T12:04:50.486Z,1804.00
2023-05-07T12:05:50.412Z,1900.00
2023-05-07T12:06:50.386Z,1624.00
2023-05-07T12:07:50.383Z,1628.00
2023-05-07T12:08:50.347Z,1996.00
2023-05-07T12:09:50.329Z,2000.00
2023-05-07T12:10:50.316Z,1884.00
2023-05-07T12:11:50.293Z,2240.00
2023-05-07T12:12:50.341Z,2220.00
2023-05-07T12:13:50.265Z,1680.00
2023-05-07T12:14:50.238Z,1736.00
2023-05-07T12:15:50.238Z,1952.00
2023-05-07T12:16:50.226Z,1892.00
2023-05-07T12:17:50.238Z,1984.00
2023-05-07T12:18:50.156Z,2036.00
2023-05-07T12:19:50.134Z,1888.00
2023-05-07T12:20:50.119Z,1748.00
2023-05-07T12:21:50.095Z,1688.00
2023-05-07T12:22:50.079Z,1632.00
2023-05-07T12:23:50.073Z,1780.00
2023-05-07T12:24:50.087Z,1704.00
2023-05-07T12:25:50.039Z,1648.00
2023-05-07T12:26:50.001Z,1764.00
2023-05-07T12:27:49.981Z,1820.00
2023-05-07T12:28:49.978Z,1792.00
2023-05-07T12:29:49.949Z,1784.00
2023-05-07T12:30:49.928Z,1752.00
2023-05-07T12:31:49.967Z,1740.00
2023-05-07T12:32:49.936Z,1744.00
2023-05-07T12:33:49.871Z,1880.00
2023-05-07T12:34:49.850Z,1896.00
2023-05-07T12:35:49.830Z,1872.00
2023-05-07T12:36:49.822Z,1960.00